createdAt,value
2022-11-16T00:02:19.803Z,87836.20
2022-11-16T00:04:49.119Z,87843.80
2022-11-16T00:07:18.800Z,87841.00
2022-11-16T00:09:48.936Z,87847.00
2022-11-16T00:12:18.271Z,87851.00
2022-11-16T00:14:47.564Z,87856.60
2022-11-16T00:17:19.741Z,87854.40
2022-11-16T00:19:49.902Z,87862.60
2022-11-16T00:22:19.232Z,87866.60
2022-11-16T00:24:48.899Z,87858.80
2022-11-16T00:27:18.090Z,87861.00
2022-11-16T00:29:47.392Z,87870.40
2022-11-16T00:32:16.571Z,87868.00
2022-11-16T00:34:46.126Z,87870.20
2022-11-16T00:37:15.597Z,87870.20
2022-11-16T00:39:45.050Z,87876.00
2022-11-16T00:42:14.217Z,87877.60
2022-11-16T00:44:43.270Z,87886.40
2022-11-16T00:47:12.483Z,87895.60
2022-11-16T00:49:41.776Z,87895.00
2022-11-16T00:52:10.998Z,87895.20
2022-11-16T00:54:40.319Z,87896.40
2022-11-16T00:57:09.831Z,87896.00
2022-11-16T00:59:39.204Z,87898.00
2022-11-16T01:02:08.566Z,87901.20
2022-11-16T01:04:37.934Z,87909.80
2022-11-16T01:07:07.180Z,87916.00
2022-11-16T01:09:36.929Z,87912.00
2022-11-16T01:12:13.864Z,87920.20
2022-11-16T01:14:49.121Z,87915.20
2022-11-16T01:17:19.653Z,87913.20
2022-11-16T01:19:48.735Z,87915.00
2022-11-16T01:22:18.382Z,87920.80
2022-11-16T01:24:50.735Z,87918.60
2022-11-16T01:27:20.311Z,87916.00
2022-11-16T01:29:49.466Z,87918.00
2022-11-16T01:32:18.730Z,87924.20
2022-11-16T01:34:48.114Z,87923.20
2022-11-16T01:37:18.100Z,87927.80
2022-11-16T01:39:47.967Z,87932.60
2022-11-16T01:42:27.315Z,87936.00
2022-11-16T01:45:40.607Z,87936.60
2022-11-16T01:48:12.879Z,87940.20
2022-11-16T01:50:43.581Z,87940.80
2022-11-16T01:53:15.675Z,87944.40
2022-11-16T01:55:48.090Z,87954.00
2022-11-16T01:58:24.277Z,87958.00
2022-11-16T02:00:53.750Z,87954.00
2022-11-16T02:03:23.624Z,87960.40
2022-11-16T02:06:30.197Z,87966.20
2022-11-16T02:09:42.349Z,87979.40
2022-11-16T02:12:40.094Z,87968.40
2022-11-16T02:15:33.671Z,87980.60
2022-11-16T02:18:26.104Z,87979.80
2022-11-16T02:21:37.631Z,87980.60
2022-11-16T02:24:49.222Z,87974.00
2022-11-16T02:27:36.634Z,87981.80
2022-11-16T02:30:08.504Z,87996.20
2022-11-16T02:33:01.939Z,87993.80
2022-11-16T02:35:45.292Z,87991.80
2022-11-16T02:38:26.587Z,87994.00
2022-11-16T02:41:06.690Z,87992.00
2022-11-16T02:43:50.542Z,87993.20
2022-11-16T02:46:32.856Z,87996.00
2022-11-16T02:49:08.632Z,88002.40
2022-11-16T02:51:41.237Z,87994.00
2022-11-16T02:54:19.572Z,88005.40
2022-11-16T02:57:20.661Z,88001.80
2022-11-16T02:59:56.280Z,88003.40
2022-11-16T03:02:34.088Z,88010.00
2022-11-16T03:05:34.912Z,88013.60
2022-11-16T03:08:18.410Z,88007.00
2022-11-16T03:11:13.293Z,88005.40
2022-11-16T03:13:44.946Z,88015.00
2022-11-16T03:16:45.644Z,88015.40
2022-11-16T03:19:24.105Z,88020.00
2022-11-16T03:22:24.512Z,88017.60
2022-11-16T03:24:54.560Z,88016.00
2022-11-16T03:28:04.894Z,88016.80
2022-11-16T03:31:03.819Z,88011.20
2022-11-16T03:33:51.647Z,88014.00
2022-11-16T03:36:25.159Z,88015.40
2022-11-16T03:38:57.094Z,88016.80
2022-11-16T03:41:29.562Z,88019.00
2022-11-16T03:44:00.383Z,88020.40
2022-11-16T03:46:30.546Z,88028.60
2022-11-16T03:49:02.426Z,88027.20
2022-11-16T03:51:31.696Z,88028.20
2022-11-16T03:54:01.275Z,88031.60
2022-11-16T03:56:31.630Z,88035.20
2022-11-16T03:59:01.354Z,88034.40
2022-11-16T04:01:30.791Z,88042.00
2022-11-16T04:04:00.307Z,88037.00
2022-11-16T04:06:48.309Z,88038.00
2022-11-16T04:09:35.935Z,88042.60
2022-11-16T04:12:23.688Z,88051.40
2022-11-16T04:15:11.516Z,88050.00
2022-11-16T04:17:59.457Z,88053.80
2022-11-16T04:20:47.384Z,88054.20
2022-11-16T04:23:36.979Z,88055.40
2022-11-16T04:26:13.448Z,88047.60
2022-11-16T04:28:43.573Z,88048.60
2022-11-16T04:31:31.306Z,88049.20
2022-11-16T04:34:19.334Z,88047.80
2022-11-16T04:37:07.144Z,88047.00
2022-11-16T04:39:36.444Z,88056.40
2022-11-16T04:42:15.777Z,88050.60
2022-11-16T04:45:03.172Z,88059.00
2022-11-16T04:47:32.615Z,88061.80
2022-11-16T04:50:01.995Z,88062.00
2022-11-16T04:52:31.466Z,88068.60
2022-11-16T04:55:00.636Z,88074.20
2022-11-16T04:57:29.936Z,88077.40
2022-11-16T05:00:00.146Z,88079.40
2022-11-16T05:02:29.699Z,88077.60
2022-11-16T05:04:59.011Z,88074.80
2022-11-16T05:07:28.572Z,88070.60
2022-11-16T05:09:58.024Z,88076.80
2022-11-16T05:12:29.706Z,88075.80
2022-11-16T05:14:59.590Z,88070.00
2022-11-16T05:17:30.217Z,88076.40
2022-11-16T05:20:19.060Z,88068.60
2022-11-16T05:22:56.696Z,88069.00
2022-11-16T05:25:28.555Z,88069.20
2022-11-16T05:28:04.204Z,88069.60
2022-11-16T05:30:33.346Z,88070.20
2022-11-16T05:33:07.438Z,88072.60
2022-11-16T05:35:36.865Z,88071.20
2022-11-16T05:38:08.458Z,88067.40
2022-11-16T05:40:37.625Z,88069.20
2022-11-16T05:43:06.821Z,88066.20
2022-11-16T05:45:36.012Z,88070.60
2022-11-16T05:48:05.565Z,88070.60
2022-11-16T05:50:38.559Z,88074.60
2022-11-16T05:53:10.867Z,88072.40
2022-11-16T05:55:40.161Z,88069.00
2022-11-16T05:58:09.396Z,88075.00
2022-11-16T06:00:40.506Z,88067.80
2022-11-16T06:03:09.799Z,88063.00
2022-11-16T06:05:40.813Z,88062.80
2022-11-16T06:08:10.449Z,88061.20
2022-11-16T06:10:39.880Z,88065.00
2022-11-16T06:13:09.195Z,88065.80
2022-11-16T06:15:41.856Z,88071.40
2022-11-16T06:18:11.733Z,88070.20
2022-11-16T06:20:42.207Z,88061.20
2022-11-16T06:23:11.568Z,88060.60
2022-11-16T06:25:41.769Z,88059.60
2022-11-16T06:28:11.499Z,88059.60
2022-11-16T06:30:42.245Z,88056.60
2022-11-16T06:33:11.628Z,88061.00
2022-11-16T06:35:40.967Z,88055.20
2022-11-16T06:38:10.201Z,88056.80
2022-11-16T06:40:40.886Z,88056.20
2022-11-16T06:43:10.166Z,88052.60
2022-11-16T06:45:40.463Z,88056.40
2022-11-16T06:48:10.564Z,88058.00
2022-11-16T06:50:40.061Z,88058.80
2022-11-16T06:55:55.488Z,88056.00
2022-11-16T06:58:24.790Z,88058.20
2022-11-16T07:00:53.955Z,88063.40
2022-11-16T07:03:23.230Z,88062.00
2022-11-16T07:05:52.545Z,88063.20
2022-11-16T07:08:21.926Z,88060.40
2022-11-16T07:10:51.235Z,88066.20
2022-11-16T07:13:20.366Z,88064.40
2022-11-16T07:15:49.801Z,88070.60
2022-11-16T07:18:19.317Z,88075.20
2022-11-16T07:20:48.722Z,88072.00
2022-11-16T07:23:17.933Z,88072.20
2022-11-16T07:25:48.365Z,88071.00
2022-11-16T07:28:17.931Z,88072.20
2022-11-16T07:30:47.965Z,88069.60
2022-11-16T07:33:18.350Z,88070.80
2022-11-16T07:35:47.522Z,88066.60
2022-11-16T07:38:18.173Z,88062.40
2022-11-16T07:40:47.656Z,88056.60
2022-11-16T07:43:16.929Z,88059.60
2022-11-16T07:45:46.205Z,88061.80
2022-11-16T07:48:15.365Z,88064.20
2022-11-16T07:50:44.731Z,88059.20
2022-11-16T07:53:13.767Z,88063.40
2022-11-16T07:55:43.032Z,88061.00
2022-11-16T07:58:13.332Z,88060.60
2022-11-16T08:00:42.670Z,88058.20
2022-11-16T08:03:12.065Z,88057.20
2022-11-16T08:05:41.597Z,88052.20
2022-11-16T08:08:11.192Z,88053.40
2022-11-16T08:10:40.763Z,88051.20
2022-11-16T08:13:10.055Z,88044.80
2022-11-16T08:15:39.297Z,88044.80
2022-11-16T08:18:08.801Z,88043.20
2022-11-16T08:20:38.093Z,88043.40
2022-11-16T08:23:07.291Z,88034.80
2022-11-16T08:25:36.568Z,88037.80
2022-11-16T08:28:05.980Z,88027.20
2022-11-16T08:30:35.498Z,88027.00
2022-11-16T08:33:04.653Z,88027.20
2022-11-16T08:35:35.011Z,88025.40
2022-11-16T08:38:04.672Z,88017.60
2022-11-16T08:40:34.551Z,88023.20
2022-11-16T08:43:03.978Z,88027.60
2022-11-16T08:45:35.171Z,88024.60
2022-11-16T08:48:04.816Z,88022.20
2022-11-16T08:50:55.539Z,88015.80
2022-11-16T08:53:24.186Z,88011.60
2022-11-16T08:55:53.480Z,88020.60
2022-11-16T08:58:22.562Z,88023.20
2022-11-16T09:00:52.552Z,88028.00
2022-11-16T09:03:21.800Z,88019.20
2022-11-16T09:05:51.109Z,88022.80
2022-11-16T09:08:20.357Z,88024.20
2022-11-16T09:10:49.726Z,88023.00
2022-11-16T09:13:19.018Z,88019.60
2022-11-16T09:15:48.313Z,88012.20
2022-11-16T09:18:17.742Z,88005.40
2022-11-16T09:20:46.847Z,88008.00
2022-11-16T09:23:19.732Z,88008.60
2022-11-16T09:25:55.175Z,88009.40
2022-11-16T09:28:25.055Z,88013.20
2022-11-16T09:30:54.289Z,88013.00
2022-11-16T09:33:23.548Z,88020.60
2022-11-16T09:35:52.659Z,88022.40
2022-11-16T09:38:40.610Z,88015.60
2022-11-16T09:41:16.915Z,88022.80
2022-11-16T09:43:54.714Z,88031.40
2022-11-16T09:46:59.859Z,88033.80
2022-11-16T09:49:41.168Z,88028.20
2022-11-16T09:52:45.674Z,88027.00
2022-11-16T09:55:33.639Z,88031.80
2022-11-16T09:58:14.917Z,88032.60
2022-11-16T10:00:52.620Z,88031.80
2022-11-16T10:03:21.886Z,88029.60
2022-11-16T10:06:10.813Z,88029.80
2022-11-16T10:08:51.220Z,88033.80
2022-11-16T10:11:49.907Z,88031.80
2022-11-16T10:14:45.510Z,88033.60
2022-11-16T10:17:59.660Z,88048.40
2022-11-16T10:30:19.744Z,88051.60
2022-11-16T10:33:06.795Z,88052.00
2022-11-16T10:35:48.072Z,88050.40
2022-11-16T10:38:23.863Z,88041.60
2022-11-16T10:41:05.105Z,88044.20
2022-11-16T10:43:35.284Z,88044.40
2022-11-16T10:46:21.456Z,88046.00
2022-11-16T10:49:23.444Z,88055.40
2022-11-16T10:51:52.751Z,88058.00
2022-11-16T10:54:22.136Z,88054.20
2022-11-16T10:57:05.907Z,88047.60
2022-11-16T10:59:45.834Z,88039.80
2022-11-16T11:02:36.915Z,88041.80
2022-11-16T11:05:22.538Z,88034.40
2022-11-16T11:08:25.260Z,88031.00
2022-11-16T11:11:25.776Z,88024.20
2022-11-16T11:14:13.817Z,88015.60
2022-11-16T11:16:43.682Z,88005.40
2022-11-16T11:19:31.208Z,88009.40
2022-11-16T11:22:04.111Z,88010.60
2022-11-16T11:24:49.272Z,88006.20
2022-11-16T11:27:27.767Z,88008.20
2022-11-16T11:29:59.815Z,88007.20
2022-11-16T11:32:41.181Z,88008.80
2022-11-16T11:35:30.963Z,88009.60
2022-11-16T11:38:08.031Z,88004.00
2022-11-16T11:40:38.080Z,88008.60
2022-11-16T11:43:23.098Z,88007.40
2022-11-16T11:46:47.281Z,88004.40
2022-11-16T11:49:42.965Z,88003.00
2022-11-16T11:52:32.422Z,87996.80
2022-11-16T11:55:03.991Z,88001.60
2022-11-16T11:57:44.300Z,88001.20
2022-11-16T12:00:19.252Z,87996.20
2022-11-16T12:03:04.049Z,87992.40
2022-11-16T12:06:20.143Z,87998.40
2022-11-16T12:09:38.067Z,88001.40
2022-11-16T12:12:39.571Z,88001.80
2022-11-16T12:15:31.925Z,87999.00
2022-11-16T12:18:44.738Z,88005.00
2022-11-16T12:21:30.716Z,88003.60
2022-11-16T12:25:04.252Z,88005.80
2022-11-16T12:27:53.229Z,88003.00
2022-11-16T12:30:25.665Z,88003.20
2022-11-16T12:33:25.994Z,87999.00
2022-11-16T12:36:24.754Z,87993.80
2022-11-16T12:39:30.655Z,87984.40
2022-11-16T12:42:38.625Z,87987.80
2022-11-16T12:45:19.826Z,87994.00
2022-11-16T12:48:27.903Z,87995.40
2022-11-16T12:51:30.486Z,87986.00
2022-11-16T12:55:23.994Z,87979.20
2022-11-16T12:58:33.094Z,87984.60
2022-11-16T13:01:27.122Z,87986.80
2022-11-16T13:04:02.345Z,87989.40
2022-11-16T13:06:58.509Z,87985.60
2022-11-16T13:09:38.682Z,87981.60
2022-11-16T13:12:16.362Z,87980.60
2022-11-16T13:14:57.598Z,87978.60
2022-11-16T13:17:40.523Z,87976.80
2022-11-16T13:20:27.691Z,87980.00
2022-11-16T13:23:33.110Z,87969.60
2022-11-16T13:26:25.408Z,87965.40
2022-11-16T13:29:12.991Z,87968.20
2022-11-16T13:32:18.754Z,87960.00
2022-11-16T13:34:48.664Z,87953.60
2022-11-16T13:37:39.277Z,87954.60
2022-11-16T13:40:10.706Z,87958.00
2022-11-16T13:43:18.395Z,87961.80
2022-11-16T13:46:02.667Z,87957.40
2022-11-16T13:48:39.408Z,87948.40
2022-11-16T13:51:17.921Z,87947.00
2022-11-16T13:56:52.891Z,87944.40
2022-11-16T13:59:29.842Z,87936.60
2022-11-16T14:02:41.765Z,87935.20
2022-11-16T14:05:35.849Z,87940.20
2022-11-16T14:08:48.453Z,87934.60
2022-11-16T14:11:41.714Z,87933.00
2022-11-16T14:14:15.123Z,87942.40
2022-11-16T14:16:51.978Z,87947.80
2022-11-16T14:19:48.570Z,87946.40
2022-11-16T14:23:02.574Z,87940.80
2022-11-16T14:25:54.188Z,87940.40
2022-11-16T14:28:35.910Z,87929.00
2022-11-16T14:31:25.290Z,87935.80
2022-11-16T14:33:59.707Z,87934.20
2022-11-16T14:36:49.488Z,87930.40
2022-11-16T14:39:33.575Z,87928.40
2022-11-16T14:42:08.497Z,87936.00
2022-11-16T14:44:41.040Z,87936.20
2022-11-16T14:47:29.961Z,87936.20
2022-11-16T14:50:01.116Z,87937.40
2022-11-16T14:52:39.143Z,87934.60
2022-11-16T14:55:24.070Z,87935.40
2022-11-16T14:58:09.497Z,87939.40
2022-11-16T15:00:40.320Z,87941.60
2022-11-16T15:03:13.933Z,87943.40
2022-11-16T15:05:45.760Z,87943.80
2022-11-16T15:08:23.562Z,87936.80
2022-11-16T15:10:54.180Z,87934.80
2022-11-16T15:13:28.074Z,87936.20
2022-11-16T15:16:21.930Z,87935.40
2022-11-16T15:19:03.655Z,87928.60
2022-11-16T15:21:32.758Z,87934.40
2022-11-16T15:24:28.759Z,87937.80
2022-11-16T15:26:51.671Z,87937.00
2022-11-16T15:29:23.959Z,87932.80
2022-11-16T15:31:53.891Z,87940.00
2022-11-16T15:34:23.274Z,87940.00
2022-11-16T15:36:52.562Z,87932.80
2022-11-16T15:39:25.436Z,87935.20
2022-11-16T15:42:02.105Z,87932.80
2022-11-16T15:44:34.648Z,87934.60
2022-11-16T15:47:05.812Z,87941.00
2022-11-16T15:49:40.009Z,87948.20
2022-11-16T15:52:09.543Z,87952.00
2022-11-16T15:54:58.375Z,87944.20
2022-11-16T15:57:27.506Z,87947.00
2022-11-16T15:59:59.140Z,87945.60
2022-11-16T16:02:33.187Z,87939.80
2022-11-16T16:05:02.509Z,87946.00
2022-11-16T16:07:43.721Z,87944.80
2022-11-16T16:10:22.081Z,87943.20
2022-11-16T16:12:57.540Z,87939.20
2022-11-16T16:15:37.789Z,87940.00
2022-11-16T16:18:40.736Z,87943.40
2022-11-16T16:21:15.541Z,87943.20
2022-11-16T16:23:57.674Z,87936.20
2022-11-16T16:26:27.167Z,87938.20
2022-11-16T16:29:10.986Z,87940.20
2022-11-16T16:31:40.616Z,87941.80
2022-11-16T16:34:13.559Z,87943.80
2022-11-16T16:36:43.037Z,87949.80
2022-11-16T16:39:13.466Z,87946.40
2022-11-16T16:41:42.795Z,87947.00
2022-11-16T16:44:17.942Z,87948.00
2022-11-16T16:46:47.518Z,87944.40
2022-11-16T16:49:20.321Z,87943.40
2022-11-16T16:51:50.688Z,87940.60
2022-11-16T16:54:20.797Z,87933.80
2022-11-16T16:56:51.617Z,87934.80
2022-11-16T16:59:21.567Z,87929.40
2022-11-16T17:01:57.450Z,87934.60
2022-11-16T17:04:28.395Z,87938.40
2022-11-16T17:07:01.339Z,87934.60
2022-11-16T17:09:35.190Z,87930.20
2022-11-16T17:12:06.818Z,87929.80
2022-11-16T17:14:37.210Z,87935.20
2022-11-16T17:17:07.675Z,87931.80
2022-11-16T17:19:38.413Z,87931.80
2022-11-16T17:22:12.383Z,87927.80
2022-11-16T17:24:42.578Z,87926.40
2022-11-16T17:27:12.725Z,87918.40
2022-11-16T17:29:44.271Z,87928.60
2022-11-16T17:32:17.819Z,87928.20
2022-11-16T17:34:47.906Z,87929.40
2022-11-16T17:37:26.891Z,87929.20
2022-11-16T17:39:58.107Z,87925.00
2022-11-16T17:42:28.059Z,87932.40
2022-11-16T17:45:01.681Z,87929.00
2022-11-16T17:47:41.003Z,87933.80
2022-11-16T17:50:11.724Z,87934.40
2022-11-16T17:52:42.247Z,87929.20
2022-11-16T17:55:16.334Z,87931.60
2022-11-16T17:57:47.125Z,87935.20
2022-11-16T18:00:18.871Z,87938.00
2022-11-16T18:02:49.002Z,87933.60
2022-11-16T18:05:19.152Z,87932.80
2022-11-16T18:07:48.692Z,87938.00
2022-11-16T18:10:19.491Z,87938.60
2022-11-16T18:12:49.134Z,87941.80
2022-11-16T18:15:37.831Z,87932.00
2022-11-16T18:18:08.718Z,87936.00
2022-11-16T18:20:39.332Z,87939.00
2022-11-16T18:23:08.886Z,87939.40
2022-11-16T18:25:38.110Z,87931.40
2022-11-16T18:28:07.755Z,87934.20
2022-11-16T18:30:37.027Z,87933.40
2022-11-16T18:33:06.413Z,87936.00
2022-11-16T18:35:36.047Z,87937.00
2022-11-16T18:38:07.979Z,87933.60
2022-11-16T18:40:37.155Z,87937.60
2022-11-16T18:43:06.530Z,87935.40
2022-11-16T18:45:35.785Z,87937.20
2022-11-16T18:48:05.397Z,87934.80
2022-11-16T18:50:35.821Z,87938.40
2022-11-16T18:53:05.473Z,87939.60
2022-11-16T18:55:34.714Z,87935.40
2022-11-16T18:58:09.487Z,87933.00
2022-11-16T19:00:52.203Z,87939.60
2022-11-16T19:03:22.123Z,87938.40
2022-11-16T19:06:08.610Z,87936.80
2022-11-16T19:08:40.455Z,87937.60
2022-11-16T19:11:16.989Z,87934.00
2022-11-16T19:13:46.789Z,87931.20
2022-11-16T19:16:16.176Z,87925.20
2022-11-16T19:18:45.459Z,87923.20
2022-11-16T19:21:19.500Z,87921.20
2022-11-16T19:23:52.860Z,87915.40
2022-11-16T19:26:25.970Z,87916.20
2022-11-16T19:28:56.595Z,87914.60
2022-11-16T19:31:31.845Z,87918.40
2022-11-16T19:34:08.285Z,87918.80
2022-11-16T19:36:38.667Z,87913.20
2022-11-16T19:39:07.947Z,87913.00
2022-11-16T19:41:37.459Z,87915.40
2022-11-16T19:44:06.833Z,87915.60
2022-11-16T19:46:38.528Z,87907.40
2022-11-16T19:49:14.487Z,87902.00
2022-11-16T19:51:46.459Z,87901.80
2022-11-16T19:54:16.229Z,87903.40
2022-11-16T19:56:51.979Z,87905.20
2022-11-16T19:59:24.336Z,87904.20
2022-11-16T20:01:53.593Z,87899.60
2022-11-16T20:04:23.082Z,87903.80
2022-11-16T20:06:52.286Z,87898.80
2022-11-16T20:09:21.310Z,87906.20
2022-11-16T20:11:50.749Z,87899.60
2022-11-16T20:14:20.225Z,87903.20
2022-11-16T20:16:51.455Z,87897.80
2022-11-16T20:19:21.913Z,87894.60
2022-11-16T20:21:51.196Z,87897.80
2022-11-16T20:24:20.473Z,87898.40
2022-11-16T20:26:50.888Z,87892.40
2022-11-16T20:29:21.513Z,87890.00
2022-11-16T20:31:50.979Z,87894.80
2022-11-16T20:34:21.793Z,87894.40
2022-11-16T20:36:51.947Z,87900.00
2022-11-16T20:39:22.853Z,87893.20
2022-11-16T20:41:52.200Z,87890.60
2022-11-16T20:44:23.303Z,87890.20
2022-11-16T20:46:55.557Z,87889.60
2022-11-16T20:49:25.001Z,87889.20
2022-11-16T20:51:54.296Z,87892.60
2022-11-16T20:54:25.474Z,87891.40
2022-11-16T20:56:54.797Z,87891.00
2022-11-16T20:59:24.099Z,87889.00
2022-11-16T21:01:56.380Z,87894.00
2022-11-16T21:04:25.591Z,87891.60
2022-11-16T21:06:54.698Z,87884.80
2022-11-16T21:09:24.322Z,87886.00
2022-11-16T21:12:12.080Z,87891.40
2022-11-16T21:14:41.384Z,87890.40
2022-11-16T21:17:10.893Z,87891.20
2022-11-16T21:19:49.869Z,87884.20
2022-11-16T21:22:32.742Z,87885.20
2022-11-16T21:25:01.994Z,87882.60
2022-11-16T21:27:31.008Z,87880.00
2022-11-16T21:30:00.104Z,87877.60
2022-11-16T21:32:29.856Z,87877.40
2022-11-16T21:34:58.870Z,87873.00
2022-11-16T21:37:28.124Z,87876.60
2022-11-16T21:39:57.235Z,87873.20
2022-11-16T21:42:26.522Z,87868.40
2022-11-16T21:44:55.731Z,87877.20
2022-11-16T21:47:24.899Z,87877.40
2022-11-16T21:50:24.853Z,87881.80
2022-11-16T21:52:43.886Z,87881.00
2022-11-16T21:55:13.085Z,87879.40
2022-11-16T21:57:42.192Z,87873.00
2022-11-16T22:00:16.151Z,87874.80
2022-11-16T22:02:45.124Z,87875.40
2022-11-16T22:05:32.488Z,87874.20
2022-11-16T22:08:08.543Z,87868.60
2022-11-16T22:10:37.691Z,87872.00
2022-11-16T22:13:07.834Z,87872.20
2022-11-16T22:15:36.935Z,87875.80
2022-11-16T22:18:06.310Z,87880.80
2022-11-16T22:20:38.133Z,87872.20
2022-11-16T22:23:07.609Z,87865.00
2022-11-16T22:25:38.466Z,87870.40
2022-11-16T22:28:24.956Z,87874.80
2022-11-16T22:31:06.116Z,87871.60
2022-11-16T22:33:36.229Z,87864.20
2022-11-16T22:36:06.276Z,87867.60
2022-11-16T22:38:36.354Z,87873.00
2022-11-16T22:41:06.081Z,87881.40
2022-11-16T22:43:36.936Z,87887.00
2022-11-16T22:46:07.949Z,87882.60
2022-11-16T22:48:43.176Z,87877.40
2022-11-16T22:51:27.285Z,87887.20
2022-11-16T22:54:03.314Z,87895.60
2022-11-16T22:56:35.099Z,87888.80
2022-11-16T22:59:04.315Z,87893.60
2022-11-16T23:01:34.152Z,87896.80
2022-11-16T23:04:03.414Z,87894.80
2022-11-16T23:06:32.983Z,87891.00
2022-11-16T23:09:02.175Z,87896.40
2022-11-16T23:11:49.449Z,87895.60
2022-11-16T23:14:37.828Z,87907.40
2022-11-16T23:17:08.634Z,87912.80
2022-11-16T23:19:55.862Z,87914.60
2022-11-16T23:22:43.312Z,87915.40
2022-11-16T23:25:32.084Z,87910.40
2022-11-16T23:28:11.165Z,87919.20
2022-11-16T23:30:41.141Z,87918.60
2022-11-16T23:33:12.217Z,87916.20
2022-11-16T23:35:41.236Z,87925.60
2022-11-16T23:38:11.017Z,87930.20
2022-11-16T23:40:42.019Z,87929.80
2022-11-16T23:43:31.118Z,87930.80
2022-11-16T23:46:00.102Z,87918.80
2022-11-16T23:48:29.273Z,87944.80
2022-11-16T23:50:58.289Z,87937.00
2022-11-16T23:53:27.507Z,87936.00
2022-11-16T23:56:05.734Z,87936.40
2022-11-16T23:58:35.474Z,87938.20
